Kythira — 9HA4617 — position and weather

sailwx.info

Track history (hours):
 
Tides and Currents Weather Stations Pressure Air Temp Water Temp Dewpoint Dewpoint Depression Visibility Wind Speed Wind Dir Waves Ship Positions

Kythira

Last reported at 2017-Oct-19 23:43 UTC. Time now 2017-Oct-22 22:53 UTC.
Position N 36°09' W 005°22'.

Length 102 m; draft 6.5 m.

Type: Tanker. MMSI: 248338000.

Date/timePositionNaut miles runAvg speedWind from/ knotsBaromVisibWave heightAir tempDewpointWater temp
2017-Oct-19 23:43N 36°09' W 005°22'1 0.0
2017-Oct-18 07:59N 36°08' W 005°23'1 0.2
2017-Oct-18 01:13N 36°07' W 005°22'0 0.3
2017-Oct-18 01:00N 36°07' W 005°22'3 5.1
2017-Oct-18 00:28N 36°09' W 005°22'0 0.2
2017-Oct-18 00:00N 36°09' W 005°22'0 0.0
2017-Oct-17 23:12N 36°09' W 005°22'0 0.1
2017-Oct-17 22:54N 36°09' W 005°22'0 0.1
2017-Oct-17 22:30N 36°09' W 005°22'0 0.0
2017-Oct-17 21:36N 36°09' W 005°22'0 0.1
2017-Oct-17 21:30N 36°09' W 005°22'0 0.1
2017-Oct-17 21:00N 36°09' W 005°22'0 0.1
2017-Oct-17 20:27N 36°09' W 005°22'2 4.8
2017-Oct-17 20:00N 36°07' W 005°22'0 0.0
2017-Oct-17 00:53N 36°07' W 005°22'0 0.1
2017-Oct-17 00:30N 36°07' W 005°22'1 1.7
2017-Oct-16 23:49N 36°06' W 005°22'2 5.9
2017-Oct-16 23:28N 36°05' W 005°20'2 3.6
2017-Oct-16 23:00N 36°07' W 005°19'0 0.0
2017-Oct-16 22:30N 36°07' W 005°19'0 0.0
2017-Oct-16 22:00N 36°07' W 005°19'0 0.1
2017-Oct-16 21:30N 36°07' W 005°19'0 0.0
2017-Oct-16 20:57N 36°07' W 005°19'0 0.0
2017-Oct-16 20:30N 36°07' W 005°19'0 0.1
2017-Oct-16 19:54N 36°07' W 005°19'0 0.0
2017-Oct-16 19:27N 36°07' W 005°19'0 0.0
2017-Oct-16 18:45N 36°07' W 005°19'0 0.0
2017-Oct-16 18:30N 36°07' W 005°19'0 0.0
2017-Oct-16 17:54N 36°07' W 005°19'0 0.0
2017-Oct-16 17:30N 36°07' W 005°19'0 0.0
2017-Oct-16 17:00N 36°07' W 005°19'0 0.0
2017-Oct-16 16:27N 36°07' W 005°19'0 0.0
2017-Oct-16 16:00N 36°07' W 005°19'0 0.0
2017-Oct-16 15:30N 36°07' W 005°19'0 0.0
2017-Oct-16 14:51N 36°07' W 005°19'0 0.0
2017-Oct-16 13:57N 36°07' W 005°19'0 0.0
2017-Oct-16 13:30N 36°07' W 005°19'0 0.0
2017-Oct-16 12:57N 36°07' W 005°19'0 0.0
2017-Oct-16 10:21N 36°07' W 005°19'0 0.0
2017-Oct-16 08:54N 36°07' W 005°19'0 0.0
2017-Oct-16 08:30N 36°07' W 005°19'0 0.1
2017-Oct-16 08:00N 36°07' W 005°19'0 0.0
2017-Oct-16 07:24N 36°07' W 005°19'1 2.8
2017-Oct-16 07:00N 36°06' W 005°19'4 0.3
2017-Oct-15 20:18N 36°09' W 005°23'0 0.6
2017-Oct-15 19:57N 36°09' W 005°22'3 6.3
2017-Oct-15 19:30N 36°06' W 005°22'3 6.1
2017-Oct-15 19:00N 36°08' W 005°18'0 0.3
2017-Oct-15 18:18N 36°08' W 005°19'0 0.0
2017-Oct-15 18:00N 36°08' W 005°19'0 0.1
2017-Oct-15 17:30N 36°08' W 005°19'0 0.0
2017-Oct-15 14:00N 36°08' W 005°19'0 0.0
2017-Oct-15 13:30N 36°08' W 005°19'1 1.6
2017-Oct-15 13:00N 36°07' W 005°19'4 8.8
2017-Oct-15 12:30N 36°03' W 005°22'5 9.5
2017-Oct-15 12:00N 35°59' W 005°25'4 9.0
2017-Oct-15 11:30N 35°56' W 005°29'3 0.2
2017-Oct-14 22:35N 35°55' W 005°32'1 4.5
2017-Oct-14 22:23N 35°54' W 005°33'2 5.6
2017-Oct-14 21:59N 35°52' W 005°34'10 0.9
2017-Oct-14 11:27N 35°60' W 005°27'8 0.7
2017-Oct-13 23:59N 36°07' W 005°22'1 2.2
2017-Oct-13 23:24N 36°08' W 005°23'2 3.1
2017-Oct-13 22:55N 36°09' W 005°22'0 0.0
2017-Oct-13 20:55N 36°09' W 005°22'1 0.0
2017-Oct-12 15:45N 36°09' W 005°22'0 1.3
2017-Oct-12 15:30N 36°09' W 005°22'0 0.1
2017-Oct-12 14:46N 36°09' W 005°22'0 0.1
2017-Oct-12 09:17N 36°09' W 005°23'1 1.4
2017-Oct-12 08:49N 36°09' W 005°22'0 0.0
2017-Oct-12 05:39N 36°09' W 005°22'0 0.1
2017-Oct-12 05:27N 36°09' W 005°22'0 0.0
2017-Oct-12 04:48N 36°09' W 005°22'0 0.1
2017-Oct-12 04:30N 36°09' W 005°22'0 0.0
2017-Oct-12 03:57N 36°09' W 005°22'0 0.1
2017-Oct-12 03:30N 36°09' W 005°22'0 0.1
2017-Oct-12 02:54N 36°09' W 005°22'0 0.1
2017-Oct-12 02:24N 36°09' W 005°22'0 0.1
2017-Oct-12 02:00N 36°09' W 005°22'0 0.0
2017-Oct-12 01:30N 36°09' W 005°22'0 0.0
2017-Oct-12 01:00N 36°09' W 005°22'0 0.1
2017-Oct-12 00:27N 36°09' W 005°22'0 0.1
2017-Oct-12 00:00N 36°09' W 005°22'0 0.1
2017-Oct-11 23:18N 36°09' W 005°22'0 0.1
2017-Oct-11 22:57N 36°09' W 005°22'0 0.0
2017-Oct-11 22:21N 36°09' W 005°22'0 0.0
2017-Oct-11 22:00N 36°09' W 005°22'0 0.1
2017-Oct-11 21:18N 36°09' W 005°22'0 0.1
2017-Oct-11 20:54N 36°09' W 005°23'0 0.1
2017-Oct-11 20:30N 36°09' W 005°22'0 0.1
2017-Oct-11 20:00N 36°09' W 005°22'2 0.1
2017-Oct-10 19:39N 36°08' W 005°22'0 0.4
2017-Oct-10 19:30N 36°08' W 005°22'2 3.1
2017-Oct-10 18:59N 36°09' W 005°23'0 0.0
2017-Oct-10 12:44N 36°09' W 005°23'0 0.1
2017-Oct-10 12:23N 36°09' W 005°23'0 0.1
2017-Oct-10 09:47N 36°09' W 005°23'  
Track history (hours):
 
Tides and Currents Weather Stations Pressure Air Temp Water Temp Dewpoint Dewpoint Depression Visibility Wind Speed Wind Dir Waves Ship Positions

Kythira

Last reported at 2017-Oct-19 23:43 UTC. Time now 2017-Oct-22 22:53 UTC.
Position N 36°09' W 005°22'.

Length 102 m; draft 6.5 m.

Type: Tanker. MMSI: 248338000.

Date/timePositionNaut miles runAvg speedWind from/ knotsBaromVisibWave heightAir tempDewpointWater temp
2017-Oct-19 23:43N 36°09' W 005°22'1 0.0
2017-Oct-18 07:59N 36°08' W 005°23'1 0.2
2017-Oct-18 01:13N 36°07' W 005°22'0 0.3
2017-Oct-18 01:00N 36°07' W 005°22'3 5.1
2017-Oct-18 00:28N 36°09' W 005°22'0 0.2
2017-Oct-18 00:00N 36°09' W 005°22'0 0.0
2017-Oct-17 23:12N 36°09' W 005°22'0 0.1
2017-Oct-17 22:54N 36°09' W 005°22'0 0.1
2017-Oct-17 22:30N 36°09' W 005°22'0 0.0
2017-Oct-17 21:36N 36°09' W 005°22'0 0.1
2017-Oct-17 21:30N 36°09' W 005°22'0 0.1
2017-Oct-17 21:00N 36°09' W 005°22'0 0.1
2017-Oct-17 20:27N 36°09' W 005°22'2 4.8
2017-Oct-17 20:00N 36°07' W 005°22'0 0.0
2017-Oct-17 00:53N 36°07' W 005°22'0 0.1
2017-Oct-17 00:30N 36°07' W 005°22'1 1.7
2017-Oct-16 23:49N 36°06' W 005°22'2 5.9
2017-Oct-16 23:28N 36°05' W 005°20'2 3.6
2017-Oct-16 23:00N 36°07' W 005°19'0 0.0
2017-Oct-16 22:30N 36°07' W 005°19'0 0.0
2017-Oct-16 22:00N 36°07' W 005°19'0 0.1
2017-Oct-16 21:30N 36°07' W 005°19'0 0.0
2017-Oct-16 20:57N 36°07' W 005°19'0 0.0
2017-Oct-16 20:30N 36°07' W 005°19'0 0.1
2017-Oct-16 19:54N 36°07' W 005°19'0 0.0
2017-Oct-16 19:27N 36°07' W 005°19'0 0.0
2017-Oct-16 18:45N 36°07' W 005°19'0 0.0
2017-Oct-16 18:30N 36°07' W 005°19'0 0.0
2017-Oct-16 17:54N 36°07' W 005°19'0 0.0
2017-Oct-16 17:30N 36°07' W 005°19'0 0.0
2017-Oct-16 17:00N 36°07' W 005°19'0 0.0
2017-Oct-16 16:27N 36°07' W 005°19'0 0.0
2017-Oct-16 16:00N 36°07' W 005°19'0 0.0
2017-Oct-16 15:30N 36°07' W 005°19'0 0.0
2017-Oct-16 14:51N 36°07' W 005°19'0 0.0
2017-Oct-16 13:57N 36°07' W 005°19'0 0.0
2017-Oct-16 13:30N 36°07' W 005°19'0 0.0
2017-Oct-16 12:57N 36°07' W 005°19'0 0.0
2017-Oct-16 10:21N 36°07' W 005°19'0 0.0
2017-Oct-16 08:54N 36°07' W 005°19'0 0.0
2017-Oct-16 08:30N 36°07' W 005°19'0 0.1
2017-Oct-16 08:00N 36°07' W 005°19'0 0.0
2017-Oct-16 07:24N 36°07' W 005°19'1 2.8
2017-Oct-16 07:00N 36°06' W 005°19'4 0.3
2017-Oct-15 20:18N 36°09' W 005°23'0 0.6
2017-Oct-15 19:57N 36°09' W 005°22'3 6.3
2017-Oct-15 19:30N 36°06' W 005°22'3 6.1
2017-Oct-15 19:00N 36°08' W 005°18'0 0.3
2017-Oct-15 18:18N 36°08' W 005°19'0 0.0
2017-Oct-15 18:00N 36°08' W 005°19'0 0.1
2017-Oct-15 17:30N 36°08' W 005°19'0 0.0
2017-Oct-15 14:00N 36°08' W 005°19'0 0.0
2017-Oct-15 13:30N 36°08' W 005°19'1 1.6
2017-Oct-15 13:00N 36°07' W 005°19'4 8.8
2017-Oct-15 12:30N 36°03' W 005°22'5 9.5
2017-Oct-15 12:00N 35°59' W 005°25'4 9.0
2017-Oct-15 11:30N 35°56' W 005°29'3 0.2
2017-Oct-14 22:35N 35°55' W 005°32'1 4.5
2017-Oct-14 22:23N 35°54' W 005°33'2 5.6
2017-Oct-14 21:59N 35°52' W 005°34'10 0.9
2017-Oct-14 11:27N 35°60' W 005°27'8 0.7
2017-Oct-13 23:59N 36°07' W 005°22'1 2.2
2017-Oct-13 23:24N 36°08' W 005°23'2 3.1
2017-Oct-13 22:55N 36°09' W 005°22'0 0.0
2017-Oct-13 20:55N 36°09' W 005°22'1 0.0
2017-Oct-12 15:45N 36°09' W 005°22'0 1.3
2017-Oct-12 15:30N 36°09' W 005°22'0 0.1
2017-Oct-12 14:46N 36°09' W 005°22'0 0.1
2017-Oct-12 09:17N 36°09' W 005°23'1 1.4
2017-Oct-12 08:49N 36°09' W 005°22'0 0.0
2017-Oct-12 05:39N 36°09' W 005°22'0 0.1
2017-Oct-12 05:27N 36°09' W 005°22'0 0.0
2017-Oct-12 04:48N 36°09' W 005°22'0 0.1
2017-Oct-12 04:30N 36°09' W 005°22'0 0.0
2017-Oct-12 03:57N 36°09' W 005°22'0 0.1
2017-Oct-12 03:30N 36°09' W 005°22'0 0.1
2017-Oct-12 02:54N 36°09' W 005°22'0 0.1
2017-Oct-12 02:24N 36°09' W 005°22'0 0.1
2017-Oct-12 02:00N 36°09' W 005°22'0 0.0
2017-Oct-12 01:30N 36°09' W 005°22'0 0.0
2017-Oct-12 01:00N 36°09' W 005°22'0 0.1
2017-Oct-12 00:27N 36°09' W 005°22'0 0.1
2017-Oct-12 00:00N 36°09' W 005°22'0 0.1
2017-Oct-11 23:18N 36°09' W 005°22'0 0.1
2017-Oct-11 22:57N 36°09' W 005°22'0 0.0
2017-Oct-11 22:21N 36°09' W 005°22'0 0.0
2017-Oct-11 22:00N 36°09' W 005°22'0 0.1
2017-Oct-11 21:18N 36°09' W 005°22'0 0.1
2017-Oct-11 20:54N 36°09' W 005°23'0 0.1
2017-Oct-11 20:30N 36°09' W 005°22'0 0.1
2017-Oct-11 20:00N 36°09' W 005°22'2 0.1
2017-Oct-10 19:39N 36°08' W 005°22'0 0.4
2017-Oct-10 19:30N 36°08' W 005°22'2 3.1
2017-Oct-10 18:59N 36°09' W 005°23'0 0.0
2017-Oct-10 12:44N 36°09' W 005°23'0 0.1
2017-Oct-10 12:23N 36°09' W 005°23'0 0.1
2017-Oct-10 09:47N 36°09' W 005°23'  

Dump ship's entire track history